Time;durP1;ratioP1;P1;durP2;ratioP2;P2;SDS_P1;SDS_P2;PMS_P1;PMS_P2;Temp;Humidity;BMP_temperature;BMP_pressure;BME280_temperature;BME280_humidity;BME280_pressure;Samples;Min_cycle;Max_cycle;Signal;HPM_P1;HPM_P2
2023/03/14 00:01:10;;;;;;;1.20;1.20;;;;;;;7.57;100.00;95403.56;5052310;28;20217;-66
2023/03/14 00:03:37;;;;;;;1.43;1.37;;;;;;;7.53;100.00;95411.06;5033635;28;20198;-66
2023/03/14 00:06:07;;;;;;;1.50;1.40;;;;;;;7.59;100.00;95398.88;5058870;28;20741;-65
2023/03/14 00:08:34;;;;;;;1.87;1.10;;;;;;;7.50;100.00;95387.75;5055051;28;20206;-66
2023/03/14 00:11:05;;;;;;;2.30;1.23;;;;;;;7.63;100.00;95392.16;5014909;28;20205;-66
2023/03/14 00:13:33;;;;;;;2.57;1.53;;;;;;;7.58;100.00;95378.81;5025722;28;20461;-67
2023/03/14 00:16:07;;;;;;;1.40;1.30;;;;;;;7.58;100.00;95378.81;5047198;28;20344;-65
2023/03/14 00:18:35;;;;;;;1.30;1.30;;;;;;;7.52;100.00;95377.81;5057498;28;20206;-67
2023/03/14 00:21:04;;;;;;;1.30;1.30;;;;;;;7.41;100.00;95374.03;5034633;28;20240;-65
2023/03/14 00:23:33;;;;;;;1.60;1.50;;;;;;;7.34;100.00;95354.78;5054744;28;20212;-67
2023/03/14 00:26:01;;;;;;;3.33;1.47;;;;;;;7.26;100.00;95336.56;5037584;28;20510;-66
2023/03/14 00:28:30;;;;;;;1.63;1.43;;;;;;;7.18;100.00;95312.09;5033408;28;20733;-67
2023/03/14 00:30:58;;;;;;;3.47;3.27;;;;;;;7.26;100.00;95310.22;5042886;28;20370;-66
2023/03/14 00:33:27;;;;;;;3.43;3.13;;;;;;;7.28;100.00;95313.47;5061863;28;20678;-67
2023/03/14 00:35:56;;;;;;;3.87;3.57;;;;;;;7.29;100.00;95300.09;5032346;28;20964;-66
2023/03/14 00:38:24;;;;;;;1.83;1.73;;;;;;;7.29;100.00;95333.50;5054767;28;20468;-67
2023/03/14 00:40:52;;;;;;;1.10;1.10;;;;;;;7.28;100.00;95359.06;5059277;28;20233;-68
2023/03/14 00:43:21;;;;;;;1.10;1.10;;;;;;;7.30;100.00;95395.72;5048872;28;20210;-71
2023/03/14 00:45:49;;;;;;;0.80;0.80;;;;;;;7.37;100.00;95420.22;5010829;28;20253;-65
2023/03/14 00:48:17;;;;;;;0.93;0.93;;;;;;;7.27;100.00;95409.31;5060592;28;20206;-67
2023/03/14 00:50:46;;;;;;;1.20;1.20;;;;;;;7.38;100.00;95427.09;5057336;28;20626;-67
2023/03/14 00:53:14;;;;;;;0.93;0.90;;;;;;;7.41;100.00;95442.53;5030979;28;20767;-67
2023/03/14 00:55:43;;;;;;;2.03;1.00;;;;;;;7.34;100.00;95429.38;5056761;28;20525;-66
2023/03/14 00:58:11;;;;;;;2.30;1.53;;;;;;;7.28;100.00;95424.09;5038386;28;20747;-66
2023/03/14 01:00:39;;;;;;;2.07;1.43;;;;;;;7.30;100.00;95427.34;5010239;28;20854;-67
2023/03/14 01:03:08;;;;;;;1.90;1.30;;;;;;;7.28;100.00;95442.53;5058874;28;20230;-66
2023/03/14 01:05:36;;;;;;;1.20;1.20;;;;;;;7.36;100.00;95456.31;5058129;28;20686;-67
2023/03/14 01:08:06;;;;;;;2.27;1.67;;;;;;;7.43;100.00;95469.47;5031318;28;20879;-66
2023/03/14 01:10:34;;;;;;;0.80;0.80;;;;;;;7.53;100.00;95471.66;5056664;28;20198;-67
2023/03/14 01:13:02;;;;;;;1.37;0.97;;;;;;;7.55;100.00;95482.00;5059589;28;20198;-66
2023/03/14 01:15:30;;;;;;;0.87;0.87;;;;;;;7.46;100.00;95453.25;5019051;28;20721;-67
2023/03/14 01:17:57;;;;;;;0.80;0.77;;;;;;;7.50;100.00;95441.28;5035371;28;20476;-65
2023/03/14 01:20:25;;;;;;;0.77;0.77;;;;;;;7.56;100.00;95433.56;5058344;28;20228;-66
2023/03/14 01:22:53;;;;;;;0.80;0.80;;;;;;;7.56;100.00;95428.28;5027069;28;20487;-66
2023/03/14 01:25:22;;;;;;;1.00;0.90;;;;;;;7.60;100.00;95424.22;5060990;28;20206;-66
2023/03/14 01:27:49;;;;;;;0.63;0.63;;;;;;;7.62;100.00;95411.63;5057190;28;20229;-65
2023/03/14 01:30:17;;;;;;;0.50;0.50;;;;;;;7.59;100.00;95407.59;5029609;28;20226;-67
2023/03/14 01:32:45;;;;;;;0.70;0.70;;;;;;;7.63;100.00;95400.91;5007698;28;20221;-66
2023/03/14 01:35:12;;;;;;;0.80;0.73;;;;;;;7.87;100.00;95398.53;5056684;28;20206;-66
2023/03/14 01:37:40;;;;;;;0.50;0.50;;;;;;;7.91;100.00;95402.38;4994143;28;20532;-65
2023/03/14 01:40:13;;;;;;;0.67;0.67;;;;;;;7.68;100.00;95387.91;5033272;28;20221;-68
2023/03/14 01:42:47;;;;;;;1.03;0.70;;;;;;;7.63;100.00;95389.53;5036556;28;20445;-68
2023/03/14 01:45:52;;;;;;;0.70;0.70;;;;;;;7.51;100.00;95390.19;5019165;28;20214;-68
2023/03/14 01:48:20;;;;;;;1.90;0.63;;;;;;;7.56;100.00;95378.22;5037148;28;20234;-69
2023/03/14 01:50:47;;;;;;;0.77;0.77;;;;;;;7.44;100.00;95357.78;5027148;28;20416;-69
2023/03/14 01:53:15;;;;;;;0.60;0.60;;;;;;;7.41;100.00;95352.94;5009313;28;20208;-69
2023/03/14 01:55:43;;;;;;;0.70;0.70;;;;;;;7.38;100.00;95345.44;5040190;28;20584;-69
2023/03/14 01:58:12;;;;;;;0.47;0.47;;;;;;;7.41;100.00;95347.69;5036837;28;20241;-68
2023/03/14 02:00:40;;;;;;;1.47;0.70;;;;;;;7.39;100.00;95350.50;5019586;28;20444;-69
2023/03/14 02:03:11;;;;;;;0.60;0.60;;;;;;;7.43;100.00;95345.63;4992662;28;20229;-69
2023/03/14 02:05:40;;;;;;;0.30;0.30;;;;;;;7.34;100.00;95349.50;5040177;28;20233;-69
2023/03/14 02:08:10;;;;;;;0.67;0.60;;;;;;;7.33;100.00;95340.81;5031911;28;20214;-69
2023/03/14 02:10:39;;;;;;;0.70;0.70;;;;;;;7.20;100.00;95314.53;5014091;28;20214;-69
2023/03/14 02:13:07;;;;;;;0.60;0.60;;;;;;;7.23;100.00;95328.06;5041535;28;20508;-69
2023/03/14 02:15:37;;;;;;;0.93;0.60;;;;;;;7.19;100.00;95297.06;5026728;28;20214;-70
2023/03/14 02:18:06;;;;;;;0.77;0.60;;;;;;;7.14;100.00;95270.56;4985867;28;20627;-69
2023/03/14 02:20:36;;;;;;;0.60;0.60;;;;;;;7.10;100.00;95270.97;5033515;28;20867;-68
2023/03/14 02:23:04;;;;;;;0.83;0.70;;;;;;;7.09;100.00;95269.38;5032178;28;20224;-70
2023/03/14 02:25:37;;;;;;;0.50;0.50;;;;;;;7.06;100.00;95284.78;5015011;28;20609;-69
2023/03/14 02:28:06;;;;;;;0.73;0.73;;;;;;;7.07;100.00;95296.94;5036127;28;20199;-69
2023/03/14 02:30:34;;;;;;;1.60;0.90;;;;;;;7.06;100.00;95297.97;5040501;28;20194;-69
2023/03/14 02:33:05;;;;;;;0.70;0.70;;;;;;;7.06;100.00;95305.84;4968244;28;20387;-70
2023/03/14 02:35:35;;;;;;;0.50;0.50;;;;;;;7.06;100.00;95306.66;5028949;28;20777;-69
2023/03/14 02:38:08;;;;;;;0.60;0.60;;;;;;;7.04;100.00;95307.91;5027790;28;20838;-70
2023/03/14 02:40:35;;;;;;;0.77;0.77;;;;;;;7.07;100.00;95341.72;5012801;28;20203;-69
2023/03/14 02:43:03;;;;;;;1.10;1.10;;;;;;;7.07;100.00;95315.38;5034393;28;20223;-69
2023/03/14 02:45:43;;;;;;;1.17;0.90;;;;;;;7.07;100.00;95315.38;5035284;28;20208;-69
2023/03/14 02:48:17;;;;;;;1.20;0.97;;;;;;;7.00;100.00;95298.75;4979294;28;20211;-70
2023/03/14 02:50:46;;;;;;;1.43;0.90;;;;;;;7.02;100.00;95284.38;5035748;28;20309;-67
2023/03/14 02:53:17;;;;;;;0.87;0.73;;;;;;;6.99;100.00;95283.97;5031778;28;20623;-70
2023/03/14 02:55:48;;;;;;;1.57;1.00;;;;;;;6.94;100.00;95308.31;5015685;28;20211;-69
2023/03/14 02:58:16;;;;;;;0.60;0.60;;;;;;;6.95;100.00;95325.72;5030022;28;20293;-68
2023/03/14 03:00:45;;;;;;;0.53;0.53;;;;;;;6.96;100.00;95348.41;5038503;28;20218;-68
2023/03/14 03:03:14;;;;;;;1.20;0.53;;;;;;;6.94;100.00;95348.59;5011445;28;20225;-70
2023/03/14 03:05:42;;;;;;;0.93;0.73;;;;;;;6.87;100.00;95347.81;4997720;28;20415;-69
2023/03/14 03:08:10;;;;;;;0.97;0.70;;;;;;;6.78;100.00;95338.53;5034257;28;20215;-70
2023/03/14 03:10:37;;;;;;;0.50;0.50;;;;;;;6.82;100.00;95345.00;5033097;28;20202;-68
2023/03/14 03:13:05;;;;;;;0.47;0.47;;;;;;;6.74;100.00;95338.13;5014308;28;20997;-70
2023/03/14 03:15:32;;;;;;;1.53;0.70;;;;;;;6.80;100.00;95360.19;5032725;28;20249;-69
2023/03/14 03:18:01;;;;;;;0.63;0.63;;;;;;;6.77;100.00;95357.97;5015309;28;20215;-70
2023/03/14 03:20:29;;;;;;;0.70;0.70;;;;;;;6.75;100.00;95355.53;4996054;28;20203;-69
2023/03/14 03:22:57;;;;;;;0.50;0.50;;;;;;;6.76;100.00;95357.16;5037461;28;20381;-69
2023/03/14 03:25:24;;;;;;;0.57;0.57;;;;;;;6.77;100.00;95361.41;5038114;28;20625;-67
2023/03/14 03:27:52;;;;;;;0.60;0.60;;;;;;;6.79;100.00;95348.03;5017194;28;20372;-68
2023/03/14 03:30:20;;;;;;;0.60;0.60;;;;;;;6.72;100.00;95334.09;5038073;28;20198;-67
2023/03/14 03:32:47;;;;;;;0.50;0.50;;;;;;;6.79;100.00;95345.41;5012614;28;20207;-69
2023/03/14 03:35:17;;;;;;;1.07;0.93;;;;;;;6.76;100.00;95349.25;4992536;28;22087;-69
2023/03/14 03:37:45;;;;;;;1.10;1.10;;;;;;;6.68;100.00;95344.19;5034613;28;20256;-68
2023/03/14 03:40:12;;;;;;;0.60;0.60;;;;;;;6.68;100.00;95346.84;5035818;28;20207;-69
2023/03/14 03:42:40;;;;;;;1.80;0.90;;;;;;;6.65;100.00;95347.25;5039401;28;20280;-67
2023/03/14 03:45:09;;;;;;;1.33;0.83;;;;;;;6.59;100.00;95338.34;5007453;28;20215;-68
2023/03/14 03:47:36;;;;;;;0.80;0.80;;;;;;;6.67;100.00;95342.59;5029303;28;20265;-68
2023/03/14 03:50:05;;;;;;;1.20;0.90;;;;;;;6.65;100.00;95345.44;5013576;28;20490;-68
2023/03/14 03:52:34;;;;;;;0.70;0.70;;;;;;;6.65;100.00;95329.66;4985295;28;20203;-68
2023/03/14 03:55:01;;;;;;;0.80;0.80;;;;;;;6.64;100.00;95324.56;5040350;28;20199;-69
2023/03/14 03:57:29;;;;;;;0.93;0.93;;;;;;;6.64;100.00;95317.50;5035439;28;20834;-68
2023/03/14 03:59:57;;;;;;;0.80;0.80;;;;;;;6.69;100.00;95316.06;5013761;28;20890;-69
2023/03/14 04:02:24;;;;;;;0.90;0.90;;;;;;;6.63;100.00;95297.47;5038316;28;20240;-69
2023/03/14 04:04:52;;;;;;;0.90;0.90;;;;;;;6.62;100.00;95295.81;5014374;28;20507;-67
2023/03/14 04:07:20;;;;;;;0.87;0.87;;;;;;;6.62;100.00;95301.09;4985301;28;21825;-67
2023/03/14 04:09:49;;;;;;;0.50;0.50;;;;;;;6.59;100.00;95292.81;5038901;28;20507;-67
2023/03/14 04:12:17;;;;;;;0.60;0.60;;;;;;;6.62;100.00;95295.81;5034680;28;21012;-68
2023/03/14 04:14:44;;;;;;;0.80;0.80;;;;;;;6.57;100.00;95303.53;5040861;28;20202;-67
2023/03/14 04:17:12;;;;;;;1.60;0.60;;;;;;;6.53;100.00;95299.69;5004577;28;20253;-68
2023/03/14 04:19:40;;;;;;;0.67;0.67;;;;;;;6.51;100.00;95299.09;5016809;28;20276;-67
2023/03/14 04:22:08;;;;;;;0.80;0.80;;;;;;;6.47;100.00;95290.00;5006078;28;20203;-68
2023/03/14 04:24:36;;;;;;;0.77;0.77;;;;;;;6.43;100.00;95273.00;5018956;28;20580;-69
2023/03/14 04:27:05;;;;;;;1.17;0.90;;;;;;;6.45;100.00;95273.59;5020422;28;20227;-67
2023/03/14 04:29:33;;;;;;;0.70;0.70;;;;;;;6.41;100.00;95275.81;5034299;28;20207;-66
2023/03/14 04:32:01;;;;;;;0.77;0.77;;;;;;;6.40;100.00;95276.03;5010223;28;20218;-67
2023/03/14 04:34:29;;;;;;;0.57;0.57;;;;;;;6.37;100.00;95274.63;5016760;28;20512;-66
2023/03/14 04:36:57;;;;;;;2.10;0.80;;;;;;;6.36;100.00;95267.75;5036797;28;20234;-67
2023/03/14 04:39:24;;;;;;;1.73;1.20;;;;;;;6.35;100.00;95263.50;5000911;28;20296;-66
2023/03/14 04:41:52;;;;;;;0.93;0.93;;;;;;;6.31;100.00;95257.84;5042374;28;20280;-69
2023/03/14 04:44:22;;;;;;;0.77;0.77;;;;;;;6.30;100.00;95247.50;5029404;28;20498;-68
2023/03/14 04:46:50;;;;;;;0.90;0.90;;;;;;;6.20;100.00;95243.50;5016961;28;20714;-67
2023/03/14 04:49:17;;;;;;;0.80;0.80;;;;;;;6.30;100.00;95258.84;5016158;28;20555;-67
2023/03/14 04:51:45;;;;;;;1.63;0.90;;;;;;;6.33;100.00;95258.44;5036617;28;20734;-66
2023/03/14 04:54:13;;;;;;;0.90;0.90;;;;;;;6.31;100.00;95257.84;5004502;28;20299;-71
2023/03/14 04:56:41;;;;;;;1.07;1.07;;;;;;;6.28;100.00;95255.63;5041698;28;20222;-69
2023/03/14 04:59:09;;;;;;;1.10;1.10;;;;;;;6.29;100.00;95254.63;5040981;28;20222;-70
2023/03/14 05:01:38;;;;;;;0.90;0.90;;;;;;;6.26;100.00;95255.03;5036148;28;20965;-69
2023/03/14 05:04:05;;;;;;;0.83;0.83;;;;;;;6.25;100.00;95255.22;5014302;28;20289;-70
2023/03/14 05:06:33;;;;;;;0.80;0.80;;;;;;;6.21;100.00;95252.16;5017046;28;20230;-69
2023/03/14 05:09:01;;;;;;;0.80;0.80;;;;;;;6.22;100.00;95266.94;5033027;28;20219;-69
2023/03/14 05:11:29;;;;;;;1.00;1.00;;;;;;;6.20;100.00;95264.53;5006605;28;20202;-68
2023/03/14 05:13:56;;;;;;;1.20;1.10;;;;;;;6.16;100.00;95263.31;5047413;28;20827;-69
2023/03/14 05:16:24;;;;;;;2.53;1.23;;;;;;;6.21;100.00;95260.06;5042481;28;20221;-69
2023/03/14 05:18:53;;;;;;;0.90;0.90;;;;;;;6.17;100.00;95264.94;5025492;28;20215;-68
2023/03/14 05:21:21;;;;;;;1.67;1.67;;;;;;;6.14;100.00;95256.63;5014106;28;20208;-68
2023/03/14 05:23:48;;;;;;;1.53;1.43;;;;;;;6.13;100.00;95247.94;5042918;28;20223;-69
2023/03/14 05:26:17;;;;;;;1.20;1.20;;;;;;;6.14;100.00;95235.59;5007303;28;21340;-70
2023/03/14 05:28:44;;;;;;;1.27;1.20;;;;;;;6.12;100.00;95246.34;5047657;28;20199;-69
2023/03/14 05:31:12;;;;;;;1.57;1.50;;;;;;;6.16;100.00;95257.25;5043041;28;20729;-70
2023/03/14 05:33:40;;;;;;;1.27;1.27;;;;;;;6.22;100.00;95244.09;5019978;28;20983;-67
2023/03/14 05:36:10;;;;;;;0.87;0.87;;;;;;;6.14;100.00;95225.91;5025207;28;20237;-68
2023/03/14 05:38:38;;;;;;;1.37;1.27;;;;;;;6.30;100.00;95235.19;5035575;28;20858;-68
2023/03/14 05:41:06;;;;;;;1.10;1.10;;;;;;;6.29;100.00;95241.47;5016532;28;20207;-66
2023/03/14 05:43:33;;;;;;;1.33;1.33;;;;;;;6.27;100.00;95238.22;5009601;28;20937;-68
2023/03/14 05:46:01;;;;;;;0.90;0.90;;;;;;;6.27;100.00;95225.09;5022885;28;20219;-69
2023/03/14 05:48:29;;;;;;;1.10;1.10;;;;;;;6.24;100.00;95207.06;5041453;28;20730;-69
2023/03/14 05:50:57;;;;;;;3.70;1.60;;;;;;;6.25;100.00;95210.50;5017108;28;20927;-69
2023/03/14 05:53:26;;;;;;;1.00;1.00;;;;;;;6.25;100.00;95205.25;5014729;28;20930;-67
2023/03/14 05:55:55;;;;;;;1.30;1.30;;;;;;;6.25;100.00;95202.63;5046520;28;20219;-68
2023/03/14 05:58:24;;;;;;;1.40;1.30;;;;;;;6.21;100.00;95210.91;4990484;28;20283;-67
2023/03/14 06:00:52;;;;;;;1.70;1.40;;;;;;;6.21;100.00;95224.06;5046263;28;20318;-67
2023/03/14 06:03:20;;;;;;;0.90;0.90;;;;;;;6.19;100.00;95222.66;5041038;28;20207;-68
2023/03/14 06:05:50;;;;;;;2.30;1.20;;;;;;;6.24;100.00;95222.84;5018473;28;20680;-68
2023/03/14 06:08:18;;;;;;;1.43;1.30;;;;;;;6.23;100.00;95213.31;5017091;28;20214;-67
2023/03/14 06:10:47;;;;;;;1.30;1.20;;;;;;;6.19;100.00;95204.22;5046587;28;20475;-68
2023/03/14 06:13:15;;;;;;;1.23;1.23;;;;;;;6.28;100.00;95205.66;5000402;28;20224;-68
2023/03/14 06:15:43;;;;;;;1.83;1.20;;;;;;;6.31;100.00;95204.41;5046124;28;20206;-68
2023/03/14 06:18:12;;;;;;;1.43;1.33;;;;;;;6.31;100.00;95205.25;5036694;28;20226;-67
2023/03/14 06:20:40;;;;;;;2.47;1.37;;;;;;;6.27;100.00;95200.59;5033429;28;20678;-68
2023/03/14 06:23:08;;;;;;;2.50;1.50;;;;;;;6.33;100.00;95205.84;5020151;28;20539;-68
2023/03/14 06:25:36;;;;;;;1.50;1.40;;;;;;;6.31;100.00;95213.13;5017921;28;20701;-67
2023/03/14 06:28:05;;;;;;;1.30;1.20;;;;;;;6.30;100.00;95211.50;5043028;28;20196;-68
2023/03/14 06:30:33;;;;;;;1.40;1.40;;;;;;;6.34;100.00;95206.63;4995275;28;20326;-68
2023/03/14 06:33:00;;;;;;;1.30;1.30;;;;;;;6.34;100.00;95210.09;5038928;28;20393;-67
2023/03/14 06:35:28;;;;;;;1.47;1.17;;;;;;;6.38;100.00;95202.56;5042502;28;20395;-68
2023/03/14 06:37:56;;;;;;;1.60;1.50;;;;;;;6.36;100.00;95194.09;5006113;28;21126;-67
2023/03/14 06:40:23;;;;;;;1.57;1.47;;;;;;;6.44;100.00;95195.69;5009841;28;20234;-68
2023/03/14 06:42:51;;;;;;;1.27;1.27;;;;;;;6.44;100.00;95198.31;5036762;28;20203;-68
2023/03/14 06:45:20;;;;;;;1.80;1.70;;;;;;;6.58;100.00;95204.34;4998923;28;20551;-67
2023/03/14 06:47:48;;;;;;;1.40;1.40;;;;;;;6.63;100.00;95202.72;5044281;28;20261;-68
2023/03/14 06:50:16;;;;;;;1.70;1.70;;;;;;;6.64;100.00;95195.63;5037459;28;20210;-68
2023/03/14 06:52:47;;;;;;;1.77;1.50;;;;;;;6.68;100.00;95206.56;5003419;28;20219;-68
2023/03/14 06:55:16;;;;;;;1.40;1.40;;;;;;;6.61;100.00;95196.84;5034342;28;20203;-68
2023/03/14 06:57:44;;;;;;;1.63;1.53;;;;;;;6.64;100.00;95198.25;5013594;28;20239;-68
2023/03/14 07:00:12;;;;;;;1.83;1.73;;;;;;;6.65;100.00;95199.88;4988442;28;20213;-67
2023/03/14 07:02:41;;;;;;;2.23;1.80;;;;;;;6.67;100.00;95200.47;5033340;28;20752;-67
2023/03/14 07:05:10;;;;;;;1.67;1.67;;;;;;;6.64;100.00;95201.72;5037961;28;20341;-67
2023/03/14 07:07:38;;;;;;;2.00;1.90;;;;;;;6.66;100.00;95197.06;5009211;28;20777;-67
2023/03/14 07:10:08;;;;;;;2.00;1.90;;;;;;;6.68;100.00;95196.81;5037382;28;20213;-67
2023/03/14 07:12:36;;;;;;;1.97;1.70;;;;;;;6.60;100.00;95191.81;5015628;28;20265;-68
2023/03/14 07:15:04;;;;;;;1.63;1.53;;;;;;;6.65;100.00;95189.34;5040348;28;20663;-66
2023/03/14 07:17:47;;;;;;;1.73;1.73;;;;;;;6.68;100.00;95191.56;4999890;28;20499;-67
2023/03/14 07:20:15;;;;;;;1.30;1.30;;;;;;;6.65;100.00;95182.28;5037914;28;20217;-67
2023/03/14 07:22:43;;;;;;;1.43;1.33;;;;;;;6.61;100.00;95169.72;5011941;28;20204;-68
2023/03/14 07:25:11;;;;;;;1.57;1.53;;;;;;;6.69;100.00;95184.50;5037404;28;20222;-67
2023/03/14 07:27:40;;;;;;;2.13;1.70;;;;;;;6.68;100.00;95190.78;5021847;28;20702;-67
2023/03/14 07:30:08;;;;;;;2.97;2.77;;;;;;;6.71;100.00;95183.25;5035776;28;20205;-66
2023/03/14 07:32:36;;;;;;;2.20;2.10;;;;;;;6.85;100.00;95199.78;4992349;28;20227;-66
2023/03/14 07:35:06;;;;;;;1.40;1.40;;;;;;;6.93;100.00;95201.41;5045120;28;20395;-67
2023/03/14 07:37:34;;;;;;;2.17;2.07;;;;;;;7.03;100.00;95203.59;5036073;28;20223;-67
2023/03/14 07:40:05;;;;;;;3.00;2.10;;;;;;;7.13;100.00;95197.84;5012870;28;20223;-66
2023/03/14 07:42:33;;;;;;;1.73;1.63;;;;;;;7.20;100.00;95207.31;5035190;28;20294;-67
2023/03/14 07:45:00;;;;;;;1.23;1.20;;;;;;;7.19;100.00;95218.06;5022262;28;20829;-67
2023/03/14 07:47:28;;;;;;;1.40;1.40;;;;;;;7.17;100.00;95217.47;4997013;28;20222;-67
2023/03/14 07:49:55;;;;;;;1.73;1.40;;;;;;;7.14;100.00;95208.19;5043869;28;20322;-66
2023/03/14 07:52:24;;;;;;;1.20;1.20;;;;;;;7.15;100.00;95211.59;5035697;28;20207;-66
2023/03/14 07:54:52;;;;;;;1.60;1.60;;;;;;;7.24;100.00;95218.25;5001388;28;20627;-67
2023/03/14 07:57:20;;;;;;;2.13;1.40;;;;;;;7.19;100.00;95228.59;5038186;28;20957;-67
2023/03/14 07:59:47;;;;;;;1.43;1.40;;;;;;;7.23;100.00;95235.09;5016721;28;20726;-66
2023/03/14 08:02:15;;;;;;;0.80;0.80;;;;;;;7.24;100.00;95239.34;5004984;28;20210;-67
2023/03/14 08:04:43;;;;;;;1.20;1.20;;;;;;;7.19;100.00;95239.13;5041743;28;20222;-67
2023/03/14 08:07:11;;;;;;;1.20;1.20;;;;;;;7.16;100.00;95252.72;5032515;28;20253;-67
2023/03/14 08:09:40;;;;;;;0.90;0.90;;;;;;;7.08;100.00;95235.34;5013341;28;20233;-68
2023/03/14 08:12:08;;;;;;;1.57;1.33;;;;;;;7.16;100.00;95239.56;5040705;28;20205;-66
2023/03/14 08:14:36;;;;;;;0.83;0.83;;;;;;;7.24;100.00;95237.50;5028683;28;20388;-67
2023/03/14 08:17:04;;;;;;;1.10;1.10;;;;;;;7.29;100.00;95236.88;5027332;28;20451;-67
2023/03/14 08:19:32;;;;;;;1.10;1.10;;;;;;;7.30;100.00;95233.22;4996213;28;20485;-67
2023/03/14 08:21:59;;;;;;;2.23;1.20;;;;;;;7.37;100.00;95230.53;5037765;28;20397;-66
2023/03/14 08:24:27;;;;;;;1.63;0.80;;;;;;;7.35;100.00;95228.13;5039970;28;20701;-67
2023/03/14 08:26:56;;;;;;;0.83;0.83;;;;;;;7.43;100.00;95221.78;5017935;28;20223;-67
2023/03/14 08:29:24;;;;;;;1.00;1.00;;;;;;;7.48;100.00;95211.41;5040658;28;20203;-66
2023/03/14 08:31:52;;;;;;;0.87;0.87;;;;;;;7.47;100.00;95208.97;5013489;28;20218;-67
2023/03/14 08:34:20;;;;;;;1.17;0.77;;;;;;;7.51;100.00;95203.09;4994392;28;20718;-67
2023/03/14 08:36:47;;;;;;;1.10;1.00;;;;;;;7.58;100.00;95197.78;5038183;28;20219;-67
2023/03/14 08:39:15;;;;;;;0.70;0.70;;;;;;;7.62;100.00;95187.59;5036722;28;20637;-66
2023/03/14 08:41:44;;;;;;;1.07;0.97;;;;;;;7.70;100.00;95189.97;5011903;28;20214;-67
2023/03/14 08:44:13;;;;;;;1.00;1.00;;;;;;;7.75;100.00;95190.13;5037253;28;20207;-66
2023/03/14 08:46:41;;;;;;;1.00;1.00;;;;;;;7.84;100.00;95185.41;5017880;28;20219;-67
2023/03/14 08:49:08;;;;;;;0.90;0.90;;;;;;;7.87;100.00;95184.16;5005496;28;20203;-67
2023/03/14 08:51:36;;;;;;;1.13;1.00;;;;;;;7.95;100.00;95179.44;5032947;28;20375;-67
2023/03/14 08:54:04;;;;;;;0.90;0.90;;;;;;;7.93;100.00;95183.31;5045895;28;20204;-67
2023/03/14 08:56:31;;;;;;;0.80;0.80;;;;;;;8.06;100.00;95177.09;5019527;28;21002;-67
2023/03/14 08:58:59;;;;;;;0.83;0.83;;;;;;;8.18;100.00;95172.72;5043459;28;20424;-66
2023/03/14 09:01:28;;;;;;;0.90;0.90;;;;;;;8.24;100.00;95168.41;5024294;28;20557;-67
2023/03/14 09:03:56;;;;;;;0.80;0.80;;;;;;;8.28;100.00;95179.31;5041621;28;20441;-66
2023/03/14 09:06:24;;;;;;;1.80;0.83;;;;;;;8.22;100.00;95183.66;5001130;28;20511;-68
2023/03/14 09:08:51;;;;;;;0.80;0.80;;;;;;;8.35;100.00;95188.78;5041141;28;20436;-66
2023/03/14 09:11:19;;;;;;;1.20;1.10;;;;;;;8.56;100.00;95173.59;5044392;28;20229;-67
2023/03/14 09:13:48;;;;;;;1.30;1.20;;;;;;;8.44;100.00;95170.84;5017538;28;20333;-67
2023/03/14 09:16:16;;;;;;;1.70;1.00;;;;;;;8.50;100.00;95172.63;5044249;28;20313;-66
2023/03/14 09:18:46;;;;;;;1.90;0.87;;;;;;;8.58;100.00;95171.53;5018005;28;20211;-67
2023/03/14 09:21:14;;;;;;;1.30;1.20;;;;;;;8.69;100.00;95170.78;5001489;28;20477;-67
2023/03/14 09:23:42;;;;;;;0.80;0.80;;;;;;;8.87;100.00;95163.84;5043398;28;20925;-67
2023/03/14 09:26:13;;;;;;;1.03;0.93;;;;;;;8.62;100.00;95170.06;5046206;28;20332;-67
2023/03/14 09:28:40;;;;;;;1.67;1.00;;;;;;;8.64;100.00;95153.97;5017104;28;21009;-67
2023/03/14 09:31:09;;;;;;;1.00;1.00;;;;;;;8.67;100.00;95170.19;5041691;28;20202;-67
2023/03/14 09:33:37;;;;;;;2.37;0.87;;;;;;;8.68;100.00;95163.88;5019631;28;20238;-67
2023/03/14 09:36:07;;;;;;;0.70;0.70;;;;;;;8.75;100.00;95163.81;5045625;28;20222;-66
2023/03/14 09:38:35;;;;;;;1.80;1.00;;;;;;;8.81;100.00;95156.81;4997019;28;20424;-67
2023/03/14 09:41:11;;;;;;;1.80;0.73;;;;;;;8.89;100.00;95161.78;5041297;28;20340;-66
2023/03/14 09:43:38;;;;;;;0.80;0.80;;;;;;;9.05;100.00;95155.09;5021162;28;20199;-68
2023/03/14 09:46:08;;;;;;;1.30;1.20;;;;;;;9.10;100.00;95162.34;5043863;28;20222;-67
2023/03/14 09:48:36;;;;;;;3.93;0.90;;;;;;;8.92;100.00;95164.00;5018570;28;20515;-67
2023/03/14 09:51:08;;;;;;;0.90;0.90;;;;;;;8.95;100.00;95168.03;5042099;28;20233;-66
2023/03/14 09:53:40;;;;;;;0.77;0.77;;;;;;;8.87;100.00;95168.34;4994658;28;20365;-67
2023/03/14 09:56:12;;;;;;;2.77;1.10;;;;;;;8.80;100.00;95161.31;5045301;28;20217;-67
2023/03/14 09:58:42;;;;;;;1.40;0.80;;;;;;;8.82;100.00;95161.91;5023239;28;20198;-67
2023/03/14 10:01:12;;;;;;;1.00;0.97;;;;;;;8.97;100.00;95173.88;5040418;28;20276;-67
2023/03/14 10:03:39;;;;;;;0.83;0.83;;;;;;;9.07;100.00;95150.38;5028478;28;20312;-67
2023/03/14 10:06:13;;;;;;;0.60;0.60;;;;;;;9.35;100.00;95156.91;5038004;28;20226;-67
2023/03/14 10:08:42;;;;;;;0.97;0.97;;;;;;;9.47;100.00;95156.94;5012272;28;20202;-68
2023/03/14 10:11:15;;;;;;;1.57;0.77;;;;;;;9.55;100.00;95159.25;5036696;28;20340;-66
2023/03/14 10:14:05;;;;;;;2.03;1.27;;;;;;;9.53;100.00;95150.72;5019024;28;20443;-67
2023/03/14 10:16:34;;;;;;;2.20;1.00;;;;;;;9.44;100.00;95138.88;5038036;28;20234;-67
2023/03/14 10:19:04;;;;;;;0.90;0.90;;;;;;;9.48;100.00;95155.91;5023228;28;20212;-67
2023/03/14 10:21:37;;;;;;;1.27;0.60;;;;;;;9.46;100.00;95151.88;5038551;28;20203;-67
2023/03/14 10:24:10;;;;;;;1.10;0.80;;;;;;;9.97;100.00;95147.78;5040177;28;20218;-67
2023/03/14 10:26:38;;;;;;;0.77;0.73;;;;;;;10.49;100.00;95142.84;4999392;28;20237;-68
2023/03/14 10:29:11;;;;;;;0.90;0.90;;;;;;;10.33;100.00;95139.03;5039642;28;20308;-68
2023/03/14 10:31:51;;;;;;;0.80;0.80;;;;;;;10.30;99.76;95132.34;5012450;28;20241;-67
2023/03/14 10:34:24;;;;;;;0.60;0.60;;;;;;;10.55;93.96;95134.75;5017028;28;20211;-66
2023/03/14 10:36:59;;;;;;;0.70;0.70;;;;;;;11.01;93.18;95126.09;5036730;28;20234;-67
2023/03/14 10:39:30;;;;;;;0.80;0.80;;;;;;;11.11;90.37;95113.00;5037631;28;20202;-68
2023/03/14 10:42:05;;;;;;;1.23;0.60;;;;;;;10.83;87.43;95119.13;5002204;28;20230;-66
2023/03/14 10:44:33;;;;;;;2.87;0.90;;;;;;;10.86;89.53;95110.72;5032176;28;20220;-68
2023/03/14 10:47:02;;;;;;;1.77;0.80;;;;;;;10.65;89.61;95110.31;5030526;28;20602;-68
2023/03/14 10:49:33;;;;;;;1.50;0.83;;;;;;;10.81;89.84;95105.31;5040944;28;20202;-68
2023/03/14 10:52:15;;;;;;;0.70;0.67;;;;;;;10.86;85.83;95108.06;5030760;28;21004;-67
2023/03/14 10:54:47;;;;;;;1.57;1.00;;;;;;;10.92;83.57;95115.06;5042387;28;20200;-68
2023/03/14 10:57:15;;;;;;;0.57;0.57;;;;;;;11.05;84.66;95126.41;4993748;28;20642;-68
2023/03/14 10:59:44;;;;;;;0.53;0.53;;;;;;;11.33;86.57;95124.78;5042253;28;20200;-69
2023/03/14 11:02:29;;;;;;;2.03;0.77;;;;;;;11.47;83.93;95122.63;5019583;28;20218;-68
2023/03/14 11:05:05;;;;;;;1.43;0.87;;;;;;;11.52;81.60;95123.50;5015585;28;20935;-69
2023/03/14 11:07:38;;;;;;;1.60;0.80;;;;;;;11.78;81.86;95123.09;5038386;28;20684;-69
2023/03/14 11:10:15;;;;;;;3.40;1.00;;;;;;;11.63;81.63;95115.72;5040799;28;20206;-68
2023/03/14 11:12:49;;;;;;;0.60;0.57;;;;;;;11.44;81.06;95113.28;5004213;28;20669;-69
2023/03/14 11:15:21;;;;;;;0.67;0.67;;;;;;;10.83;82.64;95119.13;5041908;28;20459;-69
2023/03/14 11:18:00;;;;;;;1.40;0.73;;;;;;;11.01;85.32;95123.44;5022919;28;20222;-68
2023/03/14 11:20:34;;;;;;;0.80;0.80;;;;;;;11.04;82.53;95130.09;5021577;28;23423;-68
2023/03/14 11:23:09;;;;;;;1.93;0.83;;;;;;;10.76;83.61;95123.75;5038045;28;20197;-68
2023/03/14 11:25:44;;;;;;;0.70;0.70;;;;;;;10.66;84.41;95116.44;5039121;28;20511;-68
2023/03/14 11:28:19;;;;;;;0.43;0.43;;;;;;;10.69;84.23;95118.59;5016486;28;20233;-69
2023/03/14 11:30:52;;;;;;;1.23;0.70;;;;;;;10.60;82.60;95118.16;5037407;28;20571;-67
2023/03/14 11:33:24;;;;;;;1.13;0.83;;;;;;;10.75;84.14;95111.53;5015416;28;20297;-68
2023/03/14 11:35:58;;;;;;;0.70;0.70;;;;;;;10.97;84.39;95109.84;5041952;28;20207;-68
2023/03/14 11:38:34;;;;;;;0.83;0.83;;;;;;;11.07;83.65;95108.41;5018957;28;20204;-68
2023/03/14 11:41:02;;;;;;;1.03;0.70;;;;;;;10.80;82.33;95107.16;5042836;28;20202;-68
2023/03/14 11:43:31;;;;;;;0.63;0.63;;;;;;;10.73;83.58;95095.91;4995514;28;20732;-69